Portada
METAR-TAF:

METAR-TAF

Aeropuertos :

Pécs, Hungría

latitud: 46-06N, longitud: 018-14E, altitud: 201 m

Observación

El informe se hizo hace 58 minutos, a las 10:45 UTC
Viento 11 kt del noroeste
Temperatura 7°C
Humedad 57%
Presión 1009 hPa
Visibilidad 10 km o más
Nubes dispersas a una altura de 2300 ft

METAR: LHPP 271045Z 32011KT 9999 SCT023 07/M01 Q1009

Hora: 12:43 (11:43 UTC)

Pronóstico

El informe se hizo hace 28 minutos, a las 11:15 UTC
Pronóstico válido del 27 a las 12 UTC al 27 a las 21 UTC
Viento 8 kt del oeste-noroeste
Visibilidad 10 km o más
sin nubes por debajo de 1500 m y sin presencia de cumulonimbus.
Temporalmente
del 27 a las 12 UTC al 27 a las 16 UTC
Nubes dispersas a una altura de 3500 ft, Cumulus congestus.
Evolucionando progresivamente
del 27 a las 18 UTC al 27 a las 21 UTC
Viento 10 kt del sur-sureste

TAF: LHPP 271115Z 2712/2721 30008KT CAVOK TEMPO 2712/2716 SCT035TCU BECMG 2718/2721 16010KT

Observaciones y pronósticos meteorológicos de más de 4000 aeropuertos (mensajes METAR y TAF).

Los puntos amarillos y rojos representan las estaciones disponibles.

Ponga el ratón en el punto deseado para ver el nombre de la estación.

Haga clic para ver las observaciones y los pronósticos meteorológicos.

Para cambiar el mapa : haga clic en los botones verdes con una cruz de color negro para hacer un zoom, en el botón verde con un guión para alejar o en las flechas verdes para mapas adyacentes.


METAR-TAF: